sensor_id;sensor_type;location;lat;lon;timestamp;temperature;humidity
17495;DHT22;8864;51.970;4.614;2023-07-02T00:02:14;22.80;69.60
17495;DHT22;8864;51.970;4.614;2023-07-02T00:04:41;22.80;69.40
17495;DHT22;8864;51.970;4.614;2023-07-02T00:07:09;22.90;69.40
17495;DHT22;8864;51.970;4.614;2023-07-02T00:09:37;22.80;68.90
17495;DHT22;8864;51.970;4.614;2023-07-02T00:12:04;22.80;68.70
17495;DHT22;8864;51.970;4.614;2023-07-02T00:14:32;22.80;68.10
17495;DHT22;8864;51.970;4.614;2023-07-02T00:16:59;22.80;68.30
17495;DHT22;8864;51.970;4.614;2023-07-02T00:19:26;22.80;68.40
17495;DHT22;8864;51.970;4.614;2023-07-02T00:21:53;22.80;68.50
17495;DHT22;8864;51.970;4.614;2023-07-02T00:24:20;22.80;68.60
17495;DHT22;8864;51.970;4.614;2023-07-02T00:26:49;22.80;68.60
17495;DHT22;8864;51.970;4.614;2023-07-02T00:29:16;22.80;68.50
17495;DHT22;8864;51.970;4.614;2023-07-02T00:31:42;22.80;68.70
17495;DHT22;8864;51.970;4.614;2023-07-02T00:34:09;22.80;68.70
17495;DHT22;8864;51.970;4.614;2023-07-02T00:36:36;22.80;69.00
17495;DHT22;8864;51.970;4.614;2023-07-02T00:39:03;22.70;69.10
17495;DHT22;8864;51.970;4.614;2023-07-02T00:41:30;22.70;69.30
17495;DHT22;8864;51.970;4.614;2023-07-02T00:43:58;22.70;69.50
17495;DHT22;8864;51.970;4.614;2023-07-02T00:46:26;22.70;69.60
17495;DHT22;8864;51.970;4.614;2023-07-02T00:48:54;22.70;69.60
17495;DHT22;8864;51.970;4.614;2023-07-02T00:51:22;22.70;69.30
17495;DHT22;8864;51.970;4.614;2023-07-02T00:53:52;22.70;68.80
17495;DHT22;8864;51.970;4.614;2023-07-02T00:56:20;22.70;68.60
17495;DHT22;8864;51.970;4.614;2023-07-02T00:58:49;22.60;68.00
17495;DHT22;8864;51.970;4.614;2023-07-02T01:01:19;22.60;67.60
17495;DHT22;8864;51.970;4.614;2023-07-02T01:03:51;22.60;67.30
17495;DHT22;8864;51.970;4.614;2023-07-02T01:06:23;22.60;67.60
17495;DHT22;8864;51.970;4.614;2023-07-02T01:08:55;22.60;67.20
17495;DHT22;8864;51.970;4.614;2023-07-02T01:11:26;22.60;66.40
17495;DHT22;8864;51.970;4.614;2023-07-02T01:13:55;22.60;66.30
17495;DHT22;8864;51.970;4.614;2023-07-02T01:16:25;22.60;66.10
17495;DHT22;8864;51.970;4.614;2023-07-02T01:18:53;22.60;66.10
17495;DHT22;8864;51.970;4.614;2023-07-02T01:21:23;22.50;65.60
17495;DHT22;8864;51.970;4.614;2023-07-02T01:23:51;22.60;64.80
17495;DHT22;8864;51.970;4.614;2023-07-02T01:26:18;22.60;65.50
17495;DHT22;8864;51.970;4.614;2023-07-02T01:28:45;22.60;65.30
17495;DHT22;8864;51.970;4.614;2023-07-02T01:31:12;22.60;64.60
17495;DHT22;8864;51.970;4.614;2023-07-02T01:33:39;22.60;64.30
17495;DHT22;8864;51.970;4.614;2023-07-02T01:36:07;22.60;64.00
17495;DHT22;8864;51.970;4.614;2023-07-02T01:38:35;22.50;63.20
17495;DHT22;8864;51.970;4.614;2023-07-02T01:41:02;22.50;63.20
17495;DHT22;8864;51.970;4.614;2023-07-02T01:43:29;22.50;62.90
17495;DHT22;8864;51.970;4.614;2023-07-02T01:45:56;22.50;62.50
17495;DHT22;8864;51.970;4.614;2023-07-02T01:48:24;22.50;62.00
17495;DHT22;8864;51.970;4.614;2023-07-02T01:50:52;22.50;61.80
17495;DHT22;8864;51.970;4.614;2023-07-02T01:53:19;22.50;61.80
17495;DHT22;8864;51.970;4.614;2023-07-02T01:55:47;22.50;61.80
17495;DHT22;8864;51.970;4.614;2023-07-02T01:58:14;22.50;61.60
17495;DHT22;8864;51.970;4.614;2023-07-02T02:00:41;22.50;61.50
17495;DHT22;8864;51.970;4.614;2023-07-02T02:03:09;22.40;61.30
17495;DHT22;8864;51.970;4.614;2023-07-02T02:05:36;22.40;61.50
17495;DHT22;8864;51.970;4.614;2023-07-02T02:08:03;22.50;61.30
17495;DHT22;8864;51.970;4.614;2023-07-02T02:10:30;22.40;61.00
17495;DHT22;8864;51.970;4.614;2023-07-02T02:12:58;22.40;60.60
17495;DHT22;8864;51.970;4.614;2023-07-02T02:15:25;22.40;60.70
17495;DHT22;8864;51.970;4.614;2023-07-02T02:17:55;22.40;60.70
17495;DHT22;8864;51.970;4.614;2023-07-02T02:20:22;22.40;60.10
17495;DHT22;8864;51.970;4.614;2023-07-02T02:22:50;22.40;60.00
17495;DHT22;8864;51.970;4.614;2023-07-02T02:25:17;22.40;60.00
17495;DHT22;8864;51.970;4.614;2023-07-02T02:27:49;22.30;60.20
17495;DHT22;8864;51.970;4.614;2023-07-02T02:30:18;22.30;60.40
17495;DHT22;8864;51.970;4.614;2023-07-02T02:32:45;22.30;60.90
17495;DHT22;8864;51.970;4.614;2023-07-02T02:35:11;22.30;60.30
17495;DHT22;8864;51.970;4.614;2023-07-02T02:37:39;22.20;59.80
17495;DHT22;8864;51.970;4.614;2023-07-02T02:40:07;22.20;60.20
17495;DHT22;8864;51.970;4.614;2023-07-02T02:42:35;22.20;59.80
17495;DHT22;8864;51.970;4.614;2023-07-02T02:45:02;22.20;60.60
17495;DHT22;8864;51.970;4.614;2023-07-02T02:47:30;22.20;60.50
17495;DHT22;8864;51.970;4.614;2023-07-02T02:49:57;22.20;60.70
17495;DHT22;8864;51.970;4.614;2023-07-02T02:52:24;22.20;60.60
17495;DHT22;8864;51.970;4.614;2023-07-02T02:54:51;22.20;60.60
17495;DHT22;8864;51.970;4.614;2023-07-02T02:57:18;22.20;60.30
17495;DHT22;8864;51.970;4.614;2023-07-02T02:59:45;22.20;60.20
17495;DHT22;8864;51.970;4.614;2023-07-02T03:02:12;22.10;59.80
17495;DHT22;8864;51.970;4.614;2023-07-02T03:04:40;22.10;60.00
17495;DHT22;8864;51.970;4.614;2023-07-02T03:07:10;22.10;60.10
17495;DHT22;8864;51.970;4.614;2023-07-02T03:09:36;22.10;60.10
17495;DHT22;8864;51.970;4.614;2023-07-02T03:12:04;22.10;60.40
17495;DHT22;8864;51.970;4.614;2023-07-02T03:14:31;22.10;60.40
17495;DHT22;8864;51.970;4.614;2023-07-02T03:16:58;22.10;60.40
17495;DHT22;8864;51.970;4.614;2023-07-02T03:19:26;22.10;60.60
17495;DHT22;8864;51.970;4.614;2023-07-02T03:21:54;22.10;60.60
17495;DHT22;8864;51.970;4.614;2023-07-02T03:24:21;22.10;60.40
17495;DHT22;8864;51.970;4.614;2023-07-02T03:26:48;22.10;60.40
17495;DHT22;8864;51.970;4.614;2023-07-02T03:29:15;22.10;60.50
17495;DHT22;8864;51.970;4.614;2023-07-02T03:31:45;22.10;60.20
17495;DHT22;8864;51.970;4.614;2023-07-02T03:34:12;22.10;60.50
17495;DHT22;8864;51.970;4.614;2023-07-02T03:36:39;22.10;60.10
17495;DHT22;8864;51.970;4.614;2023-07-02T03:39:08;22.10;60.10
17495;DHT22;8864;51.970;4.614;2023-07-02T03:41:35;22.10;60.40
17495;DHT22;8864;51.970;4.614;2023-07-02T03:44:02;22.10;60.20
17495;DHT22;8864;51.970;4.614;2023-07-02T03:46:29;22.00;60.30
17495;DHT22;8864;51.970;4.614;2023-07-02T03:48:57;22.10;60.40
17495;DHT22;8864;51.970;4.614;2023-07-02T03:51:24;22.10;60.60
17495;DHT22;8864;51.970;4.614;2023-07-02T03:53:50;22.10;60.40
17495;DHT22;8864;51.970;4.614;2023-07-02T03:56:19;22.10;60.30
17495;DHT22;8864;51.970;4.614;2023-07-02T03:58:46;22.10;60.30
17495;DHT22;8864;51.970;4.614;2023-07-02T04:01:13;22.10;60.40
17495;DHT22;8864;51.970;4.614;2023-07-02T04:03:47;22.10;60.30
17495;DHT22;8864;51.970;4.614;2023-07-02T04:06:14;22.10;60.20
17495;DHT22;8864;51.970;4.614;2023-07-02T04:08:42;22.10;60.10
17495;DHT22;8864;51.970;4.614;2023-07-02T04:11:09;22.10;60.20
17495;DHT22;8864;51.970;4.614;2023-07-02T04:13:38;22.10;60.10
17495;DHT22;8864;51.970;4.614;2023-07-02T04:16:06;22.10;60.10
17495;DHT22;8864;51.970;4.614;2023-07-02T04:18:34;22.10;60.00
17495;DHT22;8864;51.970;4.614;2023-07-02T04:21:01;22.10;60.00
17495;DHT22;8864;51.970;4.614;2023-07-02T04:23:29;22.00;60.00
17495;DHT22;8864;51.970;4.614;2023-07-02T04:25:56;22.00;59.60
17495;DHT22;8864;51.970;4.614;2023-07-02T04:28:22;22.00;59.70
17495;DHT22;8864;51.970;4.614;2023-07-02T04:30:51;21.90;59.60
17495;DHT22;8864;51.970;4.614;2023-07-02T04:33:18;21.90;59.70
17495;DHT22;8864;51.970;4.614;2023-07-02T04:35:46;21.90;59.90
17495;DHT22;8864;51.970;4.614;2023-07-02T04:38:13;21.90;59.60
17495;DHT22;8864;51.970;4.614;2023-07-02T04:40:40;21.80;59.40
17495;DHT22;8864;51.970;4.614;2023-07-02T04:43:11;21.80;59.60
17495;DHT22;8864;51.970;4.614;2023-07-02T04:45:38;21.80;59.80
17495;DHT22;8864;51.970;4.614;2023-07-02T04:48:07;21.80;59.80
17495;DHT22;8864;51.970;4.614;2023-07-02T04:50:34;21.80;60.00
17495;DHT22;8864;51.970;4.614;2023-07-02T04:53:01;21.80;59.80
17495;DHT22;8864;51.970;4.614;2023-07-02T04:55:29;21.80;59.70
17495;DHT22;8864;51.970;4.614;2023-07-02T04:57:56;21.80;60.10
17495;DHT22;8864;51.970;4.614;2023-07-02T05:00:23;21.80;59.70
17495;DHT22;8864;51.970;4.614;2023-07-02T05:02:50;21.80;59.80
17495;DHT22;8864;51.970;4.614;2023-07-02T05:05:19;21.80;60.00
17495;DHT22;8864;51.970;4.614;2023-07-02T05:07:46;21.80;60.20
17495;DHT22;8864;51.970;4.614;2023-07-02T05:10:14;21.80;60.10
17495;DHT22;8864;51.970;4.614;2023-07-02T05:12:40;21.80;60.10
17495;DHT22;8864;51.970;4.614;2023-07-02T05:15:09;21.80;60.30
17495;DHT22;8864;51.970;4.614;2023-07-02T05:17:37;21.80;60.20
17495;DHT22;8864;51.970;4.614;2023-07-02T05:20:05;21.80;60.60
17495;DHT22;8864;51.970;4.614;2023-07-02T05:22:34;21.80;60.50
17495;DHT22;8864;51.970;4.614;2023-07-02T05:25:01;21.80;60.60
17495;DHT22;8864;51.970;4.614;2023-07-02T05:27:28;21.80;60.70
17495;DHT22;8864;51.970;4.614;2023-07-02T05:29:55;21.70;60.70
17495;DHT22;8864;51.970;4.614;2023-07-02T05:32:22;21.80;61.00
17495;DHT22;8864;51.970;4.614;2023-07-02T05:34:49;21.80;61.00
17495;DHT22;8864;51.970;4.614;2023-07-02T05:37:16;21.80;60.70
17495;DHT22;8864;51.970;4.614;2023-07-02T05:39:44;21.70;60.70
17495;DHT22;8864;51.970;4.614;2023-07-02T05:42:11;21.80;61.00
17495;DHT22;8864;51.970;4.614;2023-07-02T05:44:38;21.70;61.00
17495;DHT22;8864;51.970;4.614;2023-07-02T05:47:05;21.70;61.20
17495;DHT22;8864;51.970;4.614;2023-07-02T05:49:32;21.70;61.20
17495;DHT22;8864;51.970;4.614;2023-07-02T05:51:59;21.70;61.20
17495;DHT22;8864;51.970;4.614;2023-07-02T05:54:26;21.70;60.90
17495;DHT22;8864;51.970;4.614;2023-07-02T05:56:54;21.70;60.90
17495;DHT22;8864;51.970;4.614;2023-07-02T05:59:21;21.60;61.30
17495;DHT22;8864;51.970;4.614;2023-07-02T06:01:48;21.60;61.00
17495;DHT22;8864;51.970;4.614;2023-07-02T06:04:15;21.60;60.90
17495;DHT22;8864;51.970;4.614;2023-07-02T06:06:44;21.60;60.80
17495;DHT22;8864;51.970;4.614;2023-07-02T06:09:11;21.60;61.00
17495;DHT22;8864;51.970;4.614;2023-07-02T06:11:38;21.50;60.60
17495;DHT22;8864;51.970;4.614;2023-07-02T06:14:07;21.60;60.90
17495;DHT22;8864;51.970;4.614;2023-07-02T06:16:34;21.60;60.80
17495;DHT22;8864;51.970;4.614;2023-07-02T06:19:00;21.50;60.40
17495;DHT22;8864;51.970;4.614;2023-07-02T06:21:27;21.60;60.40
17495;DHT22;8864;51.970;4.614;2023-07-02T06:23:56;21.50;60.40
17495;DHT22;8864;51.970;4.614;2023-07-02T06:26:24;21.50;60.40
17495;DHT22;8864;51.970;4.614;2023-07-02T06:28:51;21.50;60.40
17495;DHT22;8864;51.970;4.614;2023-07-02T06:31:19;21.50;60.70
17495;DHT22;8864;51.970;4.614;2023-07-02T06:33:46;21.50;60.80
17495;DHT22;8864;51.970;4.614;2023-07-02T06:36:13;21.50;60.80
17495;DHT22;8864;51.970;4.614;2023-07-02T06:38:41;21.50;60.70
17495;DHT22;8864;51.970;4.614;2023-07-02T06:41:08;21.50;60.60
17495;DHT22;8864;51.970;4.614;2023-07-02T06:43:35;21.50;60.40
17495;DHT22;8864;51.970;4.614;2023-07-02T06:46:02;21.50;60.40
17495;DHT22;8864;51.970;4.614;2023-07-02T06:48:30;21.50;60.90
17495;DHT22;8864;51.970;4.614;2023-07-02T06:50:58;21.50;60.30
17495;DHT22;8864;51.970;4.614;2023-07-02T06:53:25;21.50;60.10
17495;DHT22;8864;51.970;4.614;2023-07-02T06:55:52;21.50;60.30
17495;DHT22;8864;51.970;4.614;2023-07-02T06:58:20;21.60;60.40
17495;DHT22;8864;51.970;4.614;2023-07-02T07:00:47;21.60;59.60
17495;DHT22;8864;51.970;4.614;2023-07-02T07:03:14;21.60;59.60
17495;DHT22;8864;51.970;4.614;2023-07-02T07:05:44;21.60;59.20
17495;DHT22;8864;51.970;4.614;2023-07-02T07:08:10;21.50;59.00
17495;DHT22;8864;51.970;4.614;2023-07-02T07:10:37;21.50;59.30
17495;DHT22;8864;51.970;4.614;2023-07-02T07:13:04;21.50;59.30
17495;DHT22;8864;51.970;4.614;2023-07-02T07:15:33;21.60;59.40
17495;DHT22;8864;51.970;4.614;2023-07-02T07:18:00;21.50;59.90
17495;DHT22;8864;51.970;4.614;2023-07-02T07:20:27;21.60;60.30
17495;DHT22;8864;51.970;4.614;2023-07-02T07:22:56;21.60;60.00
17495;DHT22;8864;51.970;4.614;2023-07-02T07:25:23;21.60;60.00
17495;DHT22;8864;51.970;4.614;2023-07-02T07:27:51;21.60;60.10
17495;DHT22;8864;51.970;4.614;2023-07-02T07:30:18;21.60;60.30
17495;DHT22;8864;51.970;4.614;2023-07-02T07:32:49;21.60;60.70
17495;DHT22;8864;51.970;4.614;2023-07-02T07:35:16;21.60;60.60
17495;DHT22;8864;51.970;4.614;2023-07-02T07:37:44;21.60;60.20
17495;DHT22;8864;51.970;4.614;2023-07-02T07:40:13;21.60;59.90
17495;DHT22;8864;51.970;4.614;2023-07-02T07:42:41;21.60;59.50
17495;DHT22;8864;51.970;4.614;2023-07-02T07:45:09;21.60;59.10
17495;DHT22;8864;51.970;4.614;2023-07-02T07:47:36;21.60;59.00
17495;DHT22;8864;51.970;4.614;2023-07-02T07:50:05;21.60;58.30
17495;DHT22;8864;51.970;4.614;2023-07-02T07:52:36;21.50;58.30
17495;DHT22;8864;51.970;4.614;2023-07-02T07:55:04;21.50;58.60
17495;DHT22;8864;51.970;4.614;2023-07-02T07:57:34;21.60;59.70
17495;DHT22;8864;51.970;4.614;2023-07-02T08:00:01;21.60;60.30
17495;DHT22;8864;51.970;4.614;2023-07-02T08:02:30;21.60;60.10
17495;DHT22;8864;51.970;4.614;2023-07-02T08:04:57;21.60;60.10
17495;DHT22;8864;51.970;4.614;2023-07-02T08:07:24;21.60;59.60
17495;DHT22;8864;51.970;4.614;2023-07-02T08:09:51;21.60;59.10
17495;DHT22;8864;51.970;4.614;2023-07-02T08:12:18;21.60;59.50
17495;DHT22;8864;51.970;4.614;2023-07-02T08:14:46;21.70;59.90
17495;DHT22;8864;51.970;4.614;2023-07-02T08:17:13;21.70;60.40
17495;DHT22;8864;51.970;4.614;2023-07-02T08:19:40;21.70;59.90
17495;DHT22;8864;51.970;4.614;2023-07-02T08:22:07;21.70;60.30
17495;DHT22;8864;51.970;4.614;2023-07-02T08:24:34;21.70;59.40
17495;DHT22;8864;51.970;4.614;2023-07-02T08:27:01;21.70;58.60
17495;DHT22;8864;51.970;4.614;2023-07-02T08:29:29;21.70;59.70
17495;DHT22;8864;51.970;4.614;2023-07-02T08:31:57;21.70;60.30
17495;DHT22;8864;51.970;4.614;2023-07-02T08:34:25;21.70;60.10
17495;DHT22;8864;51.970;4.614;2023-07-02T08:36:53;21.80;59.90
17495;DHT22;8864;51.970;4.614;2023-07-02T08:39:20;21.70;60.20
17495;DHT22;8864;51.970;4.614;2023-07-02T08:41:48;21.70;60.10
17495;DHT22;8864;51.970;4.614;2023-07-02T08:44:19;21.80;60.10
17495;DHT22;8864;51.970;4.614;2023-07-02T08:46:46;21.80;61.10
17495;DHT22;8864;51.970;4.614;2023-07-02T08:49:17;21.80;59.40
17495;DHT22;8864;51.970;4.614;2023-07-02T08:51:44;21.80;59.90
17495;DHT22;8864;51.970;4.614;2023-07-02T08:54:12;21.80;58.90
17495;DHT22;8864;51.970;4.614;2023-07-02T08:56:39;21.80;58.50
17495;DHT22;8864;51.970;4.614;2023-07-02T08:59:06;21.80;58.40
17495;DHT22;8864;51.970;4.614;2023-07-02T09:01:44;21.80;59.10
17495;DHT22;8864;51.970;4.614;2023-07-02T09:04:16;21.80;59.10
17495;DHT22;8864;51.970;4.614;2023-07-02T09:06:44;21.80;58.80
17495;DHT22;8864;51.970;4.614;2023-07-02T09:09:11;21.80;58.30
17495;DHT22;8864;51.970;4.614;2023-07-02T09:11:49;21.70;58.30
17495;DHT22;8864;51.970;4.614;2023-07-02T09:14:27;21.80;58.50
17495;DHT22;8864;51.970;4.614;2023-07-02T09:17:05;21.70;58.50
17495;DHT22;8864;51.970;4.614;2023-07-02T09:19:34;21.80;58.70
17495;DHT22;8864;51.970;4.614;2023-07-02T09:22:03;21.80;58.20
17495;DHT22;8864;51.970;4.614;2023-07-02T09:24:31;21.70;58.00
17495;DHT22;8864;51.970;4.614;2023-07-02T09:27:00;21.80;57.60
17495;DHT22;8864;51.970;4.614;2023-07-02T09:29:28;21.70;57.20
17495;DHT22;8864;51.970;4.614;2023-07-02T09:31:56;21.80;57.80
17495;DHT22;8864;51.970;4.614;2023-07-02T09:34:28;21.70;57.60
17495;DHT22;8864;51.970;4.614;2023-07-02T09:36:57;21.80;57.40
17495;DHT22;8864;51.970;4.614;2023-07-02T09:39:28;21.70;58.20
17495;DHT22;8864;51.970;4.614;2023-07-02T09:41:56;21.80;58.20
17495;DHT22;8864;51.970;4.614;2023-07-02T09:44:26;21.80;56.90
17495;DHT22;8864;51.970;4.614;2023-07-02T09:47:00;21.80;57.90
17495;DHT22;8864;51.970;4.614;2023-07-02T09:49:32;21.80;58.10
17495;DHT22;8864;51.970;4.614;2023-07-02T09:52:01;21.80;57.90
17495;DHT22;8864;51.970;4.614;2023-07-02T09:54:29;21.80;56.80
17495;DHT22;8864;51.970;4.614;2023-07-02T09:56:56;21.80;56.90
17495;DHT22;8864;51.970;4.614;2023-07-02T09:59:23;21.70;56.20
17495;DHT22;8864;51.970;4.614;2023-07-02T10:01:50;21.80;55.00
17495;DHT22;8864;51.970;4.614;2023-07-02T10:04:19;21.80;55.40
17495;DHT22;8864;51.970;4.614;2023-07-02T10:06:47;21.80;56.00
17495;DHT22;8864;51.970;4.614;2023-07-02T10:09:15;21.80;56.50
17495;DHT22;8864;51.970;4.614;2023-07-02T10:11:43;21.80;56.50
17495;DHT22;8864;51.970;4.614;2023-07-02T10:14:10;21.80;56.20
17495;DHT22;8864;51.970;4.614;2023-07-02T10:16:52;21.80;56.30
17495;DHT22;8864;51.970;4.614;2023-07-02T10:19:20;21.90;56.10
17495;DHT22;8864;51.970;4.614;2023-07-02T10:22:00;21.90;55.70
17495;DHT22;8864;51.970;4.614;2023-07-02T10:24:29;21.90;55.70
17495;DHT22;8864;51.970;4.614;2023-07-02T10:26:57;21.90;55.00
17495;DHT22;8864;51.970;4.614;2023-07-02T10:29:25;22.00;55.00
17495;DHT22;8864;51.970;4.614;2023-07-02T10:31:54;22.00;54.60
17495;DHT22;8864;51.970;4.614;2023-07-02T10:34:30;22.00;54.40
17495;DHT22;8864;51.970;4.614;2023-07-02T10:36:59;22.00;54.00
17495;DHT22;8864;51.970;4.614;2023-07-02T10:39:29;22.00;53.00
17495;DHT22;8864;51.970;4.614;2023-07-02T10:42:14;22.00;52.90
17495;DHT22;8864;51.970;4.614;2023-07-02T10:44:50;22.00;54.60
17495;DHT22;8864;51.970;4.614;2023-07-02T10:47:17;22.00;55.20
17495;DHT22;8864;51.970;4.614;2023-07-02T10:49:45;22.00;54.30
17495;DHT22;8864;51.970;4.614;2023-07-02T10:52:12;22.00;54.60
17495;DHT22;8864;51.970;4.614;2023-07-02T10:54:43;22.00;54.20
17495;DHT22;8864;51.970;4.614;2023-07-02T10:57:12;22.00;54.20
17495;DHT22;8864;51.970;4.614;2023-07-02T10:59:40;22.00;54.60
17495;DHT22;8864;51.970;4.614;2023-07-02T11:02:08;22.00;54.90
17495;DHT22;8864;51.970;4.614;2023-07-02T11:04:36;22.00;55.10
17495;DHT22;8864;51.970;4.614;2023-07-02T11:07:04;22.00;54.30
17495;DHT22;8864;51.970;4.614;2023-07-02T11:09:32;22.00;54.50
17495;DHT22;8864;51.970;4.614;2023-07-02T11:12:01;22.10;54.50
17495;DHT22;8864;51.970;4.614;2023-07-02T11:14:29;22.10;53.60
17495;DHT22;8864;51.970;4.614;2023-07-02T11:16:57;22.10;53.00
17495;DHT22;8864;51.970;4.614;2023-07-02T11:19:24;22.10;54.00
17495;DHT22;8864;51.970;4.614;2023-07-02T11:21:52;22.10;54.00
17495;DHT22;8864;51.970;4.614;2023-07-02T11:24:28;22.10;54.30
17495;DHT22;8864;51.970;4.614;2023-07-02T11:26:55;22.10;53.10
17495;DHT22;8864;51.970;4.614;2023-07-02T11:29:24;22.10;53.30
17495;DHT22;8864;51.970;4.614;2023-07-02T11:31:52;22.10;54.00
17495;DHT22;8864;51.970;4.614;2023-07-02T11:34:21;22.10;53.50
17495;DHT22;8864;51.970;4.614;2023-07-02T11:36:49;22.10;53.90
17495;DHT22;8864;51.970;4.614;2023-07-02T11:39:19;22.20;54.30
17495;DHT22;8864;51.970;4.614;2023-07-02T11:41:47;22.20;54.00
17495;DHT22;8864;51.970;4.614;2023-07-02T11:44:15;22.20;54.10
17495;DHT22;8864;51.970;4.614;2023-07-02T11:46:44;22.20;54.10
17495;DHT22;8864;51.970;4.614;2023-07-02T11:49:12;22.20;54.00
17495;DHT22;8864;51.970;4.614;2023-07-02T11:51:40;22.20;52.80
17495;DHT22;8864;51.970;4.614;2023-07-02T11:54:07;22.20;52.00
17495;DHT22;8864;51.970;4.614;2023-07-02T11:56:34;22.30;51.90
17495;DHT22;8864;51.970;4.614;2023-07-02T11:59:01;22.30;52.90
17495;DHT22;8864;51.970;4.614;2023-07-02T12:01:28;22.30;53.60
17495;DHT22;8864;51.970;4.614;2023-07-02T12:03:56;22.30;54.00
17495;DHT22;8864;51.970;4.614;2023-07-02T12:06:23;22.30;53.40
17495;DHT22;8864;51.970;4.614;2023-07-02T12:08:51;22.30;53.70
17495;DHT22;8864;51.970;4.614;2023-07-02T12:11:18;22.30;53.50
17495;DHT22;8864;51.970;4.614;2023-07-02T12:13:45;22.30;52.90
17495;DHT22;8864;51.970;4.614;2023-07-02T12:16:11;22.30;53.60
17495;DHT22;8864;51.970;4.614;2023-07-02T12:18:38;22.40;53.70
17495;DHT22;8864;51.970;4.614;2023-07-02T12:21:07;22.40;52.70
17495;DHT22;8864;51.970;4.614;2023-07-02T12:23:33;22.40;53.40
17495;DHT22;8864;51.970;4.614;2023-07-02T12:26:00;22.40;53.10
17495;DHT22;8864;51.970;4.614;2023-07-02T12:28:27;22.40;53.70
17495;DHT22;8864;51.970;4.614;2023-07-02T12:30:54;22.40;54.10
17495;DHT22;8864;51.970;4.614;2023-07-02T12:33:21;22.40;54.40
17495;DHT22;8864;51.970;4.614;2023-07-02T12:35:48;22.40;52.70
17495;DHT22;8864;51.970;4.614;2023-07-02T12:38:16;22.40;52.80
17495;DHT22;8864;51.970;4.614;2023-07-02T12:40:44;22.40;54.10
17495;DHT22;8864;51.970;4.614;2023-07-02T12:43:11;22.50;54.00
17495;DHT22;8864;51.970;4.614;2023-07-02T12:45:38;22.40;53.30
17495;DHT22;8864;51.970;4.614;2023-07-02T12:48:05;22.50;53.60
17495;DHT22;8864;51.970;4.614;2023-07-02T12:50:32;22.50;53.70
17495;DHT22;8864;51.970;4.614;2023-07-02T12:52:59;22.50;53.70
17495;DHT22;8864;51.970;4.614;2023-07-02T12:55:27;22.50;52.40
17495;DHT22;8864;51.970;4.614;2023-07-02T12:57:55;22.50;51.70
17495;DHT22;8864;51.970;4.614;2023-07-02T13:00:22;22.50;51.00
17495;DHT22;8864;51.970;4.614;2023-07-02T13:02:49;22.50;52.30
17495;DHT22;8864;51.970;4.614;2023-07-02T13:05:16;22.50;51.20
17495;DHT22;8864;51.970;4.614;2023-07-02T13:07:43;22.50;51.90
17495;DHT22;8864;51.970;4.614;2023-07-02T13:10:10;22.50;51.00
17495;DHT22;8864;51.970;4.614;2023-07-02T13:12:39;22.50;52.10
17495;DHT22;8864;51.970;4.614;2023-07-02T13:15:06;22.60;52.50
17495;DHT22;8864;51.970;4.614;2023-07-02T13:17:34;22.50;51.50
17495;DHT22;8864;51.970;4.614;2023-07-02T13:20:01;22.60;51.90
17495;DHT22;8864;51.970;4.614;2023-07-02T13:22:28;22.60;51.40
17495;DHT22;8864;51.970;4.614;2023-07-02T13:24:55;22.60;50.30
17495;DHT22;8864;51.970;4.614;2023-07-02T13:27:22;22.60;50.30
17495;DHT22;8864;51.970;4.614;2023-07-02T13:29:50;22.60;49.10
17495;DHT22;8864;51.970;4.614;2023-07-02T13:32:17;22.60;48.30
17495;DHT22;8864;51.970;4.614;2023-07-02T13:34:44;22.70;48.60
17495;DHT22;8864;51.970;4.614;2023-07-02T13:37:11;22.60;48.20
17495;DHT22;8864;51.970;4.614;2023-07-02T13:39:39;22.70;47.40
17495;DHT22;8864;51.970;4.614;2023-07-02T13:42:06;22.70;47.80
17495;DHT22;8864;51.970;4.614;2023-07-02T13:44:33;22.70;48.30
17495;DHT22;8864;51.970;4.614;2023-07-02T13:47:01;22.70;48.00
17495;DHT22;8864;51.970;4.614;2023-07-02T13:49:28;22.70;48.60
17495;DHT22;8864;51.970;4.614;2023-07-02T13:51:55;22.70;49.50
17495;DHT22;8864;51.970;4.614;2023-07-02T13:54:22;22.70;49.30
17495;DHT22;8864;51.970;4.614;2023-07-02T13:56:51;22.80;50.40
17495;DHT22;8864;51.970;4.614;2023-07-02T13:59:20;22.80;49.30
17495;DHT22;8864;51.970;4.614;2023-07-02T14:01:47;22.70;48.90
17495;DHT22;8864;51.970;4.614;2023-07-02T14:04:16;22.80;49.00
17495;DHT22;8864;51.970;4.614;2023-07-02T14:06:44;22.80;50.00
17495;DHT22;8864;51.970;4.614;2023-07-02T14:09:11;22.80;49.50
17495;DHT22;8864;51.970;4.614;2023-07-02T14:11:40;22.90;49.50
17495;DHT22;8864;51.970;4.614;2023-07-02T14:14:08;22.90;49.80
17495;DHT22;8864;51.970;4.614;2023-07-02T14:16:37;22.90;50.70
17495;DHT22;8864;51.970;4.614;2023-07-02T14:19:03;22.90;50.30
17495;DHT22;8864;51.970;4.614;2023-07-02T14:21:30;22.90;50.30
17495;DHT22;8864;51.970;4.614;2023-07-02T14:23:57;23.00;49.70
17495;DHT22;8864;51.970;4.614;2023-07-02T14:26:25;23.00;50.20
17495;DHT22;8864;51.970;4.614;2023-07-02T14:28:52;23.00;50.30
17495;DHT22;8864;51.970;4.614;2023-07-02T14:31:20;22.90;50.10
17495;DHT22;8864;51.970;4.614;2023-07-02T14:33:48;23.00;50.00
17495;DHT22;8864;51.970;4.614;2023-07-02T14:36:15;23.00;50.90
17495;DHT22;8864;51.970;4.614;2023-07-02T14:38:42;23.00;50.70
17495;DHT22;8864;51.970;4.614;2023-07-02T14:41:09;23.00;50.90
17495;DHT22;8864;51.970;4.614;2023-07-02T14:43:36;23.10;51.10
17495;DHT22;8864;51.970;4.614;2023-07-02T14:46:03;23.10;51.70
17495;DHT22;8864;51.970;4.614;2023-07-02T14:48:31;23.10;50.50
17495;DHT22;8864;51.970;4.614;2023-07-02T14:51:01;23.10;50.90
17495;DHT22;8864;51.970;4.614;2023-07-02T14:53:28;23.10;50.80
17495;DHT22;8864;51.970;4.614;2023-07-02T14:55:58;23.20;50.70
17495;DHT22;8864;51.970;4.614;2023-07-02T14:58:26;23.20;50.80
17495;DHT22;8864;51.970;4.614;2023-07-02T15:00:55;23.20;50.70
17495;DHT22;8864;51.970;4.614;2023-07-02T15:03:23;23.20;50.00
17495;DHT22;8864;51.970;4.614;2023-07-02T15:05:50;23.20;50.00
17495;DHT22;8864;51.970;4.614;2023-07-02T15:08:19;23.20;50.00
17495;DHT22;8864;51.970;4.614;2023-07-02T15:10:48;23.20;50.10
17495;DHT22;8864;51.970;4.614;2023-07-02T15:13:16;23.20;50.20
17495;DHT22;8864;51.970;4.614;2023-07-02T15:15:45;23.20;50.20
17495;DHT22;8864;51.970;4.614;2023-07-02T15:18:12;23.20;50.20
17495;DHT22;8864;51.970;4.614;2023-07-02T15:20:39;23.30;50.30
17495;DHT22;8864;51.970;4.614;2023-07-02T15:23:07;23.20;50.30
17495;DHT22;8864;51.970;4.614;2023-07-02T15:25:35;23.20;50.10
17495;DHT22;8864;51.970;4.614;2023-07-02T15:28:02;23.30;50.10
17495;DHT22;8864;51.970;4.614;2023-07-02T15:30:30;23.30;50.10
17495;DHT22;8864;51.970;4.614;2023-07-02T15:32:57;23.20;50.20
17495;DHT22;8864;51.970;4.614;2023-07-02T15:35:24;23.30;50.40
17495;DHT22;8864;51.970;4.614;2023-07-02T15:37:51;23.30;50.40
17495;DHT22;8864;51.970;4.614;2023-07-02T15:40:18;23.30;50.30
17495;DHT22;8864;51.970;4.614;2023-07-02T15:42:46;23.30;50.20
17495;DHT22;8864;51.970;4.614;2023-07-02T15:45:13;23.30;50.20
17495;DHT22;8864;51.970;4.614;2023-07-02T15:47:40;23.30;50.30
17495;DHT22;8864;51.970;4.614;2023-07-02T15:50:08;23.30;50.40